createdAt,value
2018-01-29T00:00:18.032Z,7.60
2018-01-29T00:02:45.824Z,7.60
2018-01-29T00:05:13.239Z,7.70
2018-01-29T00:07:40.704Z,7.70
2018-01-29T00:10:08.123Z,7.70
2018-01-29T00:12:35.548Z,7.70
2018-01-29T00:15:02.975Z,7.60
2018-01-29T00:17:31.159Z,7.60
2018-01-29T00:19:58.583Z,7.60
2018-01-29T00:22:26.003Z,7.60
2018-01-29T00:24:54.187Z,7.40
2018-01-29T00:27:21.595Z,7.40
2018-01-29T00:29:49.028Z,7.50
2018-01-29T00:32:17.222Z,7.50
2018-01-29T00:34:45.411Z,7.50
2018-01-29T00:37:12.827Z,7.50
2018-01-29T00:39:40.283Z,7.50
2018-01-29T00:42:07.692Z,7.50
2018-01-29T00:44:35.891Z,7.40
2018-01-29T00:47:03.319Z,7.40
2018-01-29T00:49:30.792Z,7.40
2018-01-29T00:51:58.219Z,7.40
2018-01-29T00:54:25.647Z,7.40
2018-01-29T00:56:53.071Z,7.30
2018-01-29T00:59:21.266Z,7.40
2018-01-29T01:01:48.695Z,7.40
2018-01-29T01:04:16.129Z,7.40
2018-01-29T01:06:43.550Z,7.40
2018-01-29T01:09:11.754Z,7.40
2018-01-29T01:11:39.175Z,7.40
2018-01-29T01:14:06.601Z,7.40
2018-01-29T01:16:34.021Z,7.40
2018-01-29T01:19:02.235Z,7.40
2018-01-29T01:21:29.659Z,7.40
2018-01-29T01:23:57.091Z,7.40
2018-01-29T01:26:24.503Z,7.40
2018-01-29T01:28:52.695Z,7.30
2018-01-29T01:31:20.148Z,7.30
2018-01-29T01:33:47.568Z,7.40
2018-01-29T01:36:15.752Z,7.40
2018-01-29T01:38:43.200Z,7.30
2018-01-29T01:41:10.623Z,7.40
2018-01-29T01:43:38.047Z,7.30
2018-01-29T01:46:05.463Z,7.30
2018-01-29T01:48:32.888Z,7.30
2018-01-29T01:51:00.308Z,7.30
2018-01-29T01:53:27.719Z,7.30
2018-01-29T01:55:55.173Z,7.30
2018-01-29T01:58:22.588Z,7.30
2018-01-29T02:00:50.772Z,7.30
2018-01-29T02:03:18.187Z,7.30
2018-01-29T02:05:46.372Z,7.40
2018-01-29T02:08:13.792Z,7.40
2018-01-29T02:10:42.000Z,7.50
2018-01-29T02:13:09.423Z,7.50
2018-01-29T02:15:36.847Z,7.50
2018-01-29T02:18:04.271Z,7.50
2018-01-29T02:20:32.452Z,7.30
2018-01-29T02:22:59.883Z,7.30
2018-01-29T02:25:27.299Z,7.40
2018-01-29T02:27:55.519Z,7.40
2018-01-29T02:30:22.943Z,7.40
2018-01-29T02:32:50.355Z,7.40
2018-01-29T02:35:17.783Z,7.30
2018-01-29T02:37:45.967Z,7.20
2018-01-29T02:40:13.756Z,7.20
2018-01-29T02:42:41.184Z,7.30
2018-01-29T02:45:08.636Z,7.30
2018-01-29T02:47:36.059Z,7.30
2018-01-29T02:50:03.497Z,7.20
2018-01-29T02:52:30.922Z,7.20
2018-01-29T02:54:58.340Z,7.30
2018-01-29T02:57:26.540Z,7.30
2018-01-29T02:59:53.987Z,7.30
2018-01-29T03:02:21.419Z,7.30
2018-01-29T03:04:48.844Z,7.30
2018-01-29T03:07:17.032Z,7.30
2018-01-29T03:09:44.456Z,7.20
2018-01-29T03:12:11.875Z,7.30
2018-01-29T03:14:40.081Z,7.20
2018-01-29T03:17:07.508Z,7.20
2018-01-29T03:19:34.948Z,7.10
2018-01-29T03:22:02.380Z,7.10
2018-01-29T03:24:29.819Z,7.10
2018-01-29T03:26:57.236Z,7.10
2018-01-29T03:29:25.456Z,7.10
2018-01-29T03:31:52.876Z,7.10
2018-01-29T03:34:20.307Z,7.10
2018-01-29T03:36:47.727Z,7.20
2018-01-29T03:39:15.922Z,7.10
2018-01-29T03:41:43.342Z,7.10
2018-01-29T03:44:10.762Z,7.10
2018-01-29T03:46:38.943Z,7.10
2018-01-29T03:49:06.383Z,7.10
2018-01-29T03:51:33.803Z,7.10
2018-01-29T03:54:02.004Z,7.00
2018-01-29T03:56:29.435Z,7.00
2018-01-29T03:58:56.895Z,7.10
2018-01-29T04:01:24.316Z,7.00
2018-01-29T04:03:51.739Z,7.00
2018-01-29T04:06:19.186Z,7.00
2018-01-29T04:08:46.588Z,7.00
2018-01-29T04:11:14.016Z,7.00
2018-01-29T04:13:41.468Z,7.00
2018-01-29T04:16:09.717Z,6.90
2018-01-29T04:18:37.867Z,6.90
2018-01-29T04:21:05.283Z,6.90
2018-01-29T04:23:32.723Z,7.00
2018-01-29T04:26:00.159Z,7.00
2018-01-29T04:28:27.592Z,7.00
2018-01-29T04:30:55.020Z,7.00
2018-01-29T04:33:23.200Z,7.10
2018-01-29T04:35:50.619Z,7.10
2018-01-29T04:38:18.807Z,7.10
2018-01-29T04:40:46.235Z,7.10
2018-01-29T04:43:13.667Z,7.10
2018-01-29T04:45:43.435Z,7.10
2018-01-29T04:48:12.354Z,7.00
2018-01-29T04:50:39.788Z,7.00
2018-01-29T04:53:07.207Z,7.00
2018-01-29T04:55:34.631Z,7.00
2018-01-29T04:58:02.051Z,7.00
2018-01-29T05:00:29.463Z,7.00
2018-01-29T05:02:56.891Z,7.00
2018-01-29T05:05:24.378Z,7.00
2018-01-29T05:07:51.779Z,7.10
2018-01-29T05:10:19.191Z,7.10
2018-01-29T05:12:46.607Z,7.10
2018-01-29T05:15:14.027Z,7.20
2018-01-29T05:17:41.471Z,7.20
2018-01-29T05:20:08.928Z,7.30
2018-01-29T05:22:36.356Z,7.30
2018-01-29T05:25:03.771Z,7.30
2018-01-29T05:27:31.971Z,7.40
2018-01-29T05:29:59.399Z,7.40
2018-01-29T05:32:26.819Z,7.40
2018-01-29T05:35:11.701Z,7.40
2018-01-29T05:37:39.129Z,7.40
2018-01-29T05:40:06.661Z,7.40
2018-01-29T05:42:34.071Z,7.40
2018-01-29T05:45:02.991Z,7.30
2018-01-29T05:47:30.407Z,7.40
2018-01-29T05:49:58.607Z,7.40
2018-01-29T05:52:26.036Z,7.30
2018-01-29T05:54:53.451Z,7.30
2018-01-29T05:57:21.660Z,7.50
2018-01-29T05:59:49.104Z,7.50
2018-01-29T06:02:16.509Z,7.60
2018-01-29T06:04:44.690Z,7.80
2018-01-29T06:07:12.152Z,7.90
2018-01-29T06:12:13.590Z,8.00
2018-01-29T06:14:41.008Z,8.00
2018-01-29T06:17:08.471Z,8.00
2018-01-29T06:19:35.887Z,7.90
2018-01-29T06:22:03.325Z,7.80
2018-01-29T06:24:30.751Z,7.80
2018-01-29T06:26:58.932Z,7.80
2018-01-29T06:29:26.363Z,7.80
2018-01-29T06:31:53.775Z,7.70
2018-01-29T06:34:21.951Z,7.60
2018-01-29T06:36:49.380Z,7.60
2018-01-29T06:39:17.560Z,7.60
2018-01-29T06:41:44.980Z,7.60
2018-01-29T06:44:13.170Z,7.60
2018-01-29T06:46:40.591Z,7.60
2018-01-29T06:49:08.779Z,7.60
2018-01-29T06:51:36.203Z,7.60
2018-01-29T06:54:03.623Z,7.60
2018-01-29T06:56:32.038Z,7.50
2018-01-29T06:58:59.472Z,7.50
2018-01-29T07:01:26.883Z,7.60
2018-01-29T07:03:54.308Z,7.60
2018-01-29T07:06:22.612Z,7.60
2018-01-29T07:08:50.023Z,7.60
2018-01-29T07:11:17.447Z,7.60
2018-01-29T07:13:45.631Z,7.60
2018-01-29T07:16:13.068Z,7.60
2018-01-29T07:18:40.478Z,7.60
2018-01-29T07:21:07.897Z,7.60
2018-01-29T07:23:35.320Z,7.60
2018-01-29T07:26:02.732Z,7.60
2018-01-29T07:28:30.155Z,7.60
2018-01-29T07:30:58.341Z,7.70
2018-01-29T07:33:25.769Z,7.70
2018-01-29T07:35:53.947Z,7.70
2018-01-29T07:38:21.436Z,7.70
2018-01-29T07:40:49.787Z,7.70
2018-01-29T07:43:17.204Z,7.70
2018-01-29T07:45:44.646Z,7.80
2018-01-29T07:48:12.054Z,7.80
2018-01-29T07:50:40.236Z,7.80
2018-01-29T07:53:07.661Z,7.80
2018-01-29T07:55:35.089Z,7.90
2018-01-29T07:58:03.276Z,7.90
2018-01-29T08:00:30.728Z,7.90
2018-01-29T08:02:58.156Z,8.00
2018-01-29T08:05:26.396Z,8.00
2018-01-29T08:07:54.596Z,8.00
2018-01-29T08:10:22.039Z,8.00
2018-01-29T08:12:49.468Z,8.10
2018-01-29T08:15:16.884Z,8.10
2018-01-29T08:17:44.308Z,8.10
2018-01-29T08:20:12.508Z,8.10
2018-01-29T08:22:39.940Z,8.10
2018-01-29T08:25:07.364Z,8.20
2018-01-29T08:27:35.552Z,8.20
2018-01-29T08:30:02.996Z,8.20
2018-01-29T08:32:30.418Z,8.20
2018-01-29T08:34:57.907Z,8.30
2018-01-29T08:37:25.329Z,8.40
2018-01-29T08:39:52.754Z,8.30
2018-01-29T08:42:20.180Z,8.30
2018-01-29T08:44:47.608Z,8.40
2018-01-29T08:47:15.915Z,8.40
2018-01-29T08:49:43.249Z,8.40
2018-01-29T08:52:10.665Z,8.50
2018-01-29T08:54:38.112Z,8.50
2018-01-29T08:57:05.527Z,8.60
2018-01-29T08:59:33.717Z,8.70
2018-01-29T09:02:01.141Z,8.60
2018-01-29T09:04:28.564Z,8.70
2018-01-29T09:06:56.809Z,8.60
2018-01-29T09:09:24.188Z,8.60
2018-01-29T09:11:51.604Z,8.70
2018-01-29T09:14:19.788Z,8.80
2018-01-29T09:16:47.208Z,8.80
2018-01-29T09:19:15.400Z,9.00
2018-01-29T09:21:42.832Z,8.90
2018-01-29T09:24:10.257Z,8.90
2018-01-29T09:26:38.455Z,9.00
2018-01-29T09:29:05.872Z,9.00
2018-01-29T09:31:33.299Z,9.10
2018-01-29T09:34:01.514Z,9.30
2018-01-29T09:36:28.936Z,9.20
2018-01-29T09:38:56.364Z,9.40
2018-01-29T09:41:23.880Z,9.60
2018-01-29T09:43:51.280Z,9.60
2018-01-29T09:46:18.729Z,9.70
2018-01-29T09:48:46.137Z,9.70
2018-01-29T09:51:13.572Z,9.80
2018-01-29T09:53:40.992Z,9.80
2018-01-29T09:56:09.180Z,9.60
2018-01-29T09:58:36.612Z,9.60
2018-01-29T10:01:04.057Z,9.70
2018-01-29T10:03:31.481Z,9.80
2018-01-29T10:05:59.668Z,10.30
2018-01-29T10:08:27.089Z,10.20
2018-01-29T10:10:54.503Z,10.30
2018-01-29T10:13:22.701Z,10.10
2018-01-29T10:15:50.123Z,10.10
2018-01-29T10:18:17.545Z,10.10
2018-01-29T10:20:45.751Z,10.40
2018-01-29T10:23:13.173Z,10.40
2018-01-29T10:25:40.605Z,10.70
2018-01-29T10:28:08.799Z,11.00
2018-01-29T10:30:36.228Z,10.90
2018-01-29T10:33:03.647Z,11.00
2018-01-29T10:35:31.071Z,10.90
2018-01-29T10:37:59.255Z,10.80
2018-01-29T10:40:26.686Z,10.80
2018-01-29T10:42:54.863Z,10.60
2018-01-29T10:45:22.331Z,10.60
2018-01-29T10:47:49.773Z,10.60
2018-01-29T10:50:17.280Z,10.70
2018-01-29T10:52:44.658Z,10.80
2018-01-29T10:55:12.075Z,10.70
2018-01-29T10:57:39.508Z,10.70
2018-01-29T11:00:06.987Z,10.60
2018-01-29T11:02:34.443Z,10.50
2018-01-29T11:05:01.865Z,10.40
2018-01-29T11:07:29.279Z,10.50
2018-01-29T11:09:56.702Z,10.80
2018-01-29T11:12:24.134Z,11.10
2018-01-29T11:14:52.331Z,11.80
2018-01-29T11:17:19.761Z,11.80
2018-01-29T11:19:47.226Z,12.40
2018-01-29T11:22:14.683Z,12.50
2018-01-29T11:24:42.119Z,12.70
2018-01-29T11:27:09.548Z,12.80
2018-01-29T11:29:36.963Z,13.10
2018-01-29T11:32:04.442Z,13.50
2018-01-29T11:34:31.854Z,12.90
2018-01-29T11:36:59.271Z,12.70
2018-01-29T11:39:26.691Z,12.40
2018-01-29T11:41:54.136Z,12.10
2018-01-29T11:44:21.556Z,11.90
2018-01-29T11:46:48.983Z,11.60
2018-01-29T11:49:16.403Z,11.40
2018-01-29T11:51:43.827Z,11.40
2018-01-29T11:54:11.255Z,11.30
2018-01-29T11:56:39.479Z,10.80
2018-01-29T11:59:07.032Z,10.80
2018-01-29T12:01:34.440Z,10.70
2018-01-29T12:04:01.896Z,10.60
2018-01-29T12:06:29.326Z,10.70
2018-01-29T12:08:56.756Z,10.70
2018-01-29T12:11:24.187Z,10.60
2018-01-29T12:13:51.607Z,10.70
2018-01-29T12:16:19.795Z,10.80
2018-01-29T12:18:47.227Z,10.80
2018-01-29T12:21:14.651Z,10.90
2018-01-29T12:23:42.851Z,10.90
2018-01-29T12:26:10.277Z,10.90
2018-01-29T12:28:37.746Z,10.70
2018-01-29T12:31:05.168Z,10.60
2018-01-29T12:33:32.591Z,10.60
2018-01-29T12:36:00.019Z,10.50
2018-01-29T12:38:28.235Z,10.50
2018-01-29T12:40:55.663Z,10.50
2018-01-29T12:43:23.091Z,10.40
2018-01-29T12:45:50.519Z,10.40
2018-01-29T12:48:17.940Z,10.30
2018-01-29T12:50:46.124Z,10.30
2018-01-29T12:53:13.556Z,10.20
2018-01-29T12:55:40.988Z,10.20
2018-01-29T12:58:09.175Z,10.30
2018-01-29T13:00:36.602Z,10.30
2018-01-29T13:03:04.027Z,10.90
2018-01-29T13:05:32.228Z,11.50
2018-01-29T13:07:59.659Z,11.50
2018-01-29T13:10:27.083Z,11.70
2018-01-29T13:12:54.523Z,11.20
2018-01-29T13:15:21.970Z,11.40
2018-01-29T13:17:49.400Z,11.70
2018-01-29T13:20:17.604Z,11.90
2018-01-29T13:22:45.033Z,11.90
2018-01-29T13:25:12.459Z,11.80
2018-01-29T13:27:39.877Z,11.70
2018-01-29T13:30:08.076Z,12.50
2018-01-29T13:32:35.504Z,12.50
2018-01-29T13:35:02.919Z,12.30
2018-01-29T13:37:31.103Z,12.90
2018-01-29T13:39:58.528Z,12.90
2018-01-29T13:42:26.016Z,13.20
2018-01-29T13:44:53.503Z,12.90
2018-01-29T13:47:20.994Z,13.00
2018-01-29T13:49:48.435Z,12.80
2018-01-29T13:52:15.861Z,13.20
2018-01-29T13:54:43.291Z,12.50
2018-01-29T13:57:10.712Z,12.70
2018-01-29T13:59:38.923Z,12.60
2018-01-29T14:02:06.340Z,12.60
2018-01-29T14:04:33.779Z,12.60
2018-01-29T14:07:01.381Z,12.60
2018-01-29T14:09:28.795Z,12.30
2018-01-29T14:11:56.232Z,11.90
2018-01-29T14:14:23.775Z,12.30
2018-01-29T14:16:51.210Z,11.90
2018-01-29T14:19:18.631Z,11.10
2018-01-29T14:21:46.080Z,10.70
2018-01-29T14:24:13.495Z,10.50
2018-01-29T14:26:41.688Z,10.50
2018-01-29T14:29:09.111Z,10.50
2018-01-29T14:31:36.531Z,10.60
2018-01-29T14:34:04.720Z,10.80
2018-01-29T14:36:32.143Z,10.70
2018-01-29T14:38:59.578Z,10.90
2018-01-29T14:41:27.771Z,9.90
2018-01-29T14:43:55.202Z,9.80
2018-01-29T14:46:22.628Z,10.10
2018-01-29T14:48:50.055Z,11.00
2018-01-29T14:51:18.259Z,11.10
2018-01-29T14:53:45.850Z,11.10
2018-01-29T14:56:13.240Z,10.50
2018-01-29T14:58:40.704Z,10.00
2018-01-29T15:01:08.126Z,9.70
2018-01-29T15:03:35.539Z,9.60
2018-01-29T15:06:02.967Z,9.50
2018-01-29T15:08:31.147Z,9.20
2018-01-29T15:10:58.594Z,9.30
2018-01-29T15:13:25.997Z,9.30
2018-01-29T15:15:59.940Z,9.20
2018-01-29T15:18:27.368Z,9.20
2018-01-29T15:20:54.800Z,9.20
2018-01-29T15:23:22.976Z,9.20
2018-01-29T15:25:50.393Z,9.10
2018-01-29T15:28:17.816Z,9.30
2018-01-29T15:30:46.018Z,9.50
2018-01-29T15:33:13.435Z,9.50
2018-01-29T15:35:40.847Z,9.30
2018-01-29T15:38:08.271Z,9.30
2018-01-29T15:40:36.523Z,9.20
2018-01-29T15:43:03.943Z,9.20
2018-01-29T15:45:31.363Z,9.20
2018-01-29T15:47:58.787Z,9.20
2018-01-29T15:50:26.977Z,9.10
2018-01-29T15:52:54.399Z,9.10
2018-01-29T15:55:21.871Z,9.10
2018-01-29T15:57:50.043Z,9.00
2018-01-29T16:00:17.476Z,9.00
2018-01-29T16:02:44.895Z,9.00
2018-01-29T16:05:12.295Z,9.00
2018-01-29T16:07:39.723Z,8.90
2018-01-29T16:10:07.907Z,8.90
2018-01-29T16:12:36.098Z,9.00
2018-01-29T16:15:03.548Z,8.90
2018-01-29T16:17:30.956Z,9.00
2018-01-29T16:19:59.167Z,9.00
2018-01-29T16:22:26.595Z,8.90
2018-01-29T16:24:54.007Z,8.90
2018-01-29T16:27:21.448Z,8.90
2018-01-29T16:29:48.868Z,8.90
2018-01-29T16:32:16.304Z,8.90
2018-01-29T16:34:43.777Z,8.90
2018-01-29T16:37:11.953Z,8.80
2018-01-29T16:39:39.415Z,8.80
2018-01-29T16:42:06.898Z,8.80
2018-01-29T16:44:34.283Z,8.90
2018-01-29T16:47:01.716Z,8.80
2018-01-29T16:49:29.160Z,8.80
2018-01-29T16:51:56.571Z,8.80
2018-01-29T16:54:24.772Z,8.90
2018-01-29T16:56:52.204Z,8.90
2018-01-29T16:59:19.649Z,8.90
2018-01-29T17:01:47.044Z,8.90
2018-01-29T17:04:15.248Z,8.90
2018-01-29T17:06:42.647Z,8.90
2018-01-29T17:09:10.840Z,9.00
2018-01-29T17:11:38.272Z,9.00
2018-01-29T17:14:05.738Z,9.00
2018-01-29T17:16:33.150Z,9.00
2018-01-29T17:19:01.356Z,8.90
2018-01-29T17:21:28.793Z,8.90
2018-01-29T17:23:56.278Z,8.90
2018-01-29T17:26:23.740Z,8.90
2018-01-29T17:28:51.953Z,8.90
2018-01-29T17:31:19.360Z,8.90
2018-01-29T17:33:46.778Z,8.90
2018-01-29T17:36:14.233Z,9.00
2018-01-29T17:38:41.704Z,9.00
2018-01-29T17:41:09.139Z,9.00
2018-01-29T17:43:36.551Z,9.10
2018-01-29T17:46:03.973Z,9.10
2018-01-29T17:48:32.187Z,9.00
2018-01-29T17:50:59.623Z,9.00
2018-01-29T17:53:27.054Z,9.00
2018-01-29T17:55:54.474Z,9.00
2018-01-29T17:58:21.891Z,9.00
2018-01-29T18:00:50.137Z,9.10
2018-01-29T18:03:17.582Z,9.10
2018-01-29T18:05:45.771Z,9.20
2018-01-29T18:08:13.234Z,9.10
2018-01-29T18:10:40.690Z,9.20
2018-01-29T18:13:08.092Z,9.20
2018-01-29T18:15:35.542Z,9.10
2018-01-29T18:18:03.743Z,9.20
2018-01-29T18:20:31.218Z,9.20
2018-01-29T18:22:58.661Z,9.20
2018-01-29T18:25:26.083Z,9.20
2018-01-29T18:27:53.506Z,9.20
2018-01-29T18:30:20.924Z,9.20
2018-01-29T18:32:48.351Z,9.20
2018-01-29T18:35:15.763Z,9.20
2018-01-29T18:37:43.997Z,9.20
2018-01-29T18:40:11.434Z,9.10
2018-01-29T18:42:38.903Z,9.20
2018-01-29T18:45:07.853Z,9.10
2018-01-29T18:47:35.311Z,9.10
2018-01-29T18:50:03.551Z,9.10
2018-01-29T18:52:30.955Z,9.10
2018-01-29T18:54:58.398Z,9.20
2018-01-29T18:57:25.811Z,9.20
2018-01-29T18:59:53.999Z,9.30
2018-01-29T19:02:21.411Z,9.20
2018-01-29T19:04:49.663Z,9.30
2018-01-29T19:07:17.062Z,9.20
2018-01-29T19:09:44.521Z,9.30
2018-01-29T19:12:12.031Z,9.20
2018-01-29T19:14:39.427Z,9.20
2018-01-29T19:17:06.891Z,9.20
2018-01-29T19:19:35.116Z,9.20
2018-01-29T19:22:02.526Z,9.10
2018-01-29T19:24:29.987Z,9.20
2018-01-29T19:26:57.398Z,9.20
2018-01-29T19:29:24.878Z,9.20
2018-01-29T19:31:52.299Z,9.20
2018-01-29T19:34:19.732Z,9.20
2018-01-29T19:36:47.155Z,9.20
2018-01-29T19:39:14.627Z,9.20
2018-01-29T19:41:42.086Z,9.10
2018-01-29T19:44:09.489Z,9.10
2018-01-29T19:46:36.974Z,9.00
2018-01-29T19:49:04.387Z,9.00
2018-01-29T19:51:31.805Z,9.00
2018-01-29T19:53:59.280Z,8.90
2018-01-29T19:56:26.709Z,8.90
2018-01-29T19:58:54.184Z,8.90
2018-01-29T20:01:21.580Z,8.90
2018-01-29T20:03:49.067Z,8.90
2018-01-29T20:06:16.548Z,8.80
2018-01-29T20:08:44.260Z,8.80
2018-01-29T20:11:11.713Z,8.90
2018-01-29T20:13:39.177Z,8.90
2018-01-29T20:16:07.348Z,8.80
2018-01-29T20:18:34.839Z,8.70
2018-01-29T20:21:02.294Z,8.70
2018-01-29T20:23:29.761Z,8.70
2018-01-29T20:25:57.988Z,8.50
2018-01-29T20:28:25.449Z,8.50
2018-01-29T20:30:52.915Z,8.40
2018-01-29T20:33:21.091Z,8.30
2018-01-29T20:35:48.539Z,8.30
2018-01-29T20:38:15.996Z,8.40
2018-01-29T20:40:43.449Z,8.40
2018-01-29T20:43:10.918Z,8.40
2018-01-29T20:45:38.512Z,8.40
2018-01-29T20:48:05.916Z,8.50
2018-01-29T20:50:34.182Z,8.50
2018-01-29T20:53:02.546Z,8.50
2018-01-29T20:55:30.767Z,8.50
2018-01-29T20:57:58.171Z,8.50
2018-01-29T21:00:25.650Z,8.70
2018-01-29T21:02:53.107Z,8.60
2018-01-29T21:05:20.668Z,8.60
2018-01-29T21:07:48.836Z,8.50
2018-01-29T21:10:16.334Z,8.50
2018-01-29T21:12:43.806Z,8.60
2018-01-29T21:15:11.276Z,8.60
2018-01-29T21:17:38.748Z,8.60
2018-01-29T21:20:06.160Z,8.60
2018-01-29T21:22:33.624Z,8.70
2018-01-29T21:25:01.078Z,8.70
2018-01-29T21:27:28.554Z,8.70
2018-01-29T21:29:55.976Z,8.80
2018-01-29T21:32:23.434Z,8.80
2018-01-29T21:34:50.890Z,8.80
2018-01-29T21:37:19.071Z,8.80
2018-01-29T21:39:46.489Z,8.80
2018-01-29T21:42:14.724Z,8.80
2018-01-29T21:44:42.179Z,8.80
2018-01-29T21:47:09.638Z,8.80
2018-01-29T21:49:37.894Z,8.90
2018-01-29T21:52:06.127Z,8.90
2018-01-29T21:54:33.583Z,8.80
2018-01-29T21:57:00.987Z,8.90
2018-01-29T21:59:28.469Z,8.80
2018-01-29T22:01:57.383Z,8.80
2018-01-29T22:04:24.873Z,8.80
2018-01-29T22:06:52.297Z,8.90
2018-01-29T22:09:19.769Z,9.00
2018-01-29T22:11:48.003Z,8.90
2018-01-29T22:14:15.422Z,8.90
2018-01-29T22:16:42.881Z,8.90
2018-01-29T22:19:10.355Z,8.80
2018-01-29T22:21:38.543Z,8.80
2018-01-29T22:24:05.989Z,8.80
2018-01-29T22:26:33.485Z,8.80
2018-01-29T22:29:01.796Z,8.80
2018-01-29T22:31:30.171Z,8.80
2018-01-29T22:33:57.710Z,8.70
2018-01-29T22:36:25.164Z,8.70
2018-01-29T22:38:52.600Z,8.60
2018-01-29T22:41:20.078Z,8.60
2018-01-29T22:43:47.537Z,8.70
2018-01-29T22:46:14.981Z,8.70
2018-01-29T22:48:42.392Z,8.60
2018-01-29T22:51:09.846Z,8.60
2018-01-29T22:53:37.288Z,8.60
2018-01-29T22:56:04.755Z,8.60
2018-01-29T22:58:32.204Z,8.60
2018-01-29T23:01:00.395Z,8.50
2018-01-29T23:03:27.832Z,8.50
2018-01-29T23:05:55.288Z,8.50
2018-01-29T23:08:22.696Z,8.50
2018-01-29T23:10:50.119Z,8.50
2018-01-29T23:13:18.349Z,8.40
2018-01-29T23:15:45.771Z,8.40
2018-01-29T23:18:13.253Z,8.40
2018-01-29T23:20:40.705Z,8.40
2018-01-29T23:23:08.112Z,8.50
2018-01-29T23:25:35.523Z,8.50
2018-01-29T23:28:03.038Z,8.40
2018-01-29T23:30:31.217Z,8.40
2018-01-29T23:32:58.647Z,8.40
2018-01-29T23:35:26.056Z,8.40
2018-01-29T23:37:53.480Z,8.40
2018-01-29T23:40:20.891Z,8.40
2018-01-29T23:42:48.348Z,8.40
2018-01-29T23:45:15.779Z,8.30
2018-01-29T23:47:43.225Z,8.30
2018-01-29T23:50:10.647Z,8.30
2018-01-29T23:52:38.095Z,8.30
2018-01-29T23:55:05.532Z,8.30
2018-01-29T23:57:32.971Z,8.30
